createdAt,value
2023-04-19T00:00:46.129Z,6.45
2023-04-19T00:01:48.395Z,5.57
2023-04-19T00:02:50.810Z,6.90
2023-04-19T00:03:53.164Z,5.57
2023-04-19T00:04:55.874Z,8.32
2023-04-19T00:06:00.792Z,6.43
2023-04-19T00:07:03.453Z,6.78
2023-04-19T00:08:06.282Z,6.97
2023-04-19T00:09:09.266Z,8.93
2023-04-19T00:10:11.460Z,7.18
2023-04-19T00:11:13.569Z,8.00
2023-04-19T00:12:15.709Z,6.53
2023-04-19T00:13:17.872Z,6.43
2023-04-19T00:14:20.057Z,7.85
2023-04-19T00:15:22.143Z,13.80
2023-04-19T00:16:24.287Z,9.38
2023-04-19T00:17:27.307Z,6.50
2023-04-19T00:18:29.492Z,6.13
2023-04-19T00:19:31.619Z,7.28
2023-04-19T00:20:33.728Z,6.22
2023-04-19T00:21:35.892Z,5.80
2023-04-19T00:22:37.977Z,5.63
2023-04-19T00:23:40.051Z,7.28
2023-04-19T00:24:42.154Z,6.93
2023-04-19T00:25:46.136Z,5.65
2023-04-19T00:26:48.279Z,5.72
2023-04-19T00:27:50.492Z,6.22
2023-04-19T00:28:52.594Z,7.35
2023-04-19T00:29:54.768Z,8.80
2023-04-19T00:30:57.164Z,7.95
2023-04-19T00:31:59.419Z,7.05
2023-04-19T00:33:01.637Z,9.13
2023-04-19T00:34:03.742Z,8.68
2023-04-19T00:35:06.381Z,7.15
2023-04-19T00:36:09.850Z,6.65
2023-04-19T00:37:12.004Z,7.38
2023-04-19T00:38:14.183Z,10.48
2023-04-19T00:39:16.329Z,6.68
2023-04-19T00:40:18.498Z,6.57
2023-04-19T00:41:20.622Z,8.02
2023-04-19T00:42:22.724Z,6.95
2023-04-19T00:43:24.809Z,8.10
2023-04-19T00:44:27.282Z,8.38
2023-04-19T00:45:29.438Z,7.05
2023-04-19T00:46:31.816Z,6.55
2023-04-19T00:47:35.185Z,7.18
2023-04-19T00:48:37.420Z,8.70
2023-04-19T00:49:39.548Z,8.48
2023-04-19T00:50:43.980Z,7.53
2023-04-19T00:51:46.806Z,8.93
2023-04-19T00:52:49.028Z,7.80
2023-04-19T00:53:51.656Z,7.97
2023-04-19T00:54:53.934Z,7.72
2023-04-19T00:55:57.697Z,7.80
2023-04-19T00:56:59.805Z,7.38
2023-04-19T00:58:02.687Z,10.00
2023-04-19T00:59:04.843Z,6.40
2023-04-19T01:00:09.708Z,9.90
2023-04-19T01:01:11.949Z,7.22
2023-04-19T01:02:14.474Z,6.22
2023-04-19T01:03:17.114Z,6.82
2023-04-19T01:04:19.817Z,9.00
2023-04-19T01:05:22.280Z,8.02
2023-04-19T01:06:24.505Z,6.90
2023-04-19T01:07:26.955Z,8.73
2023-04-19T01:08:29.272Z,7.18
2023-04-19T01:09:31.642Z,7.68
2023-04-19T01:10:34.087Z,7.57
2023-04-19T01:11:36.269Z,7.78
2023-04-19T01:12:38.515Z,7.57
2023-04-19T01:13:40.605Z,8.13
2023-04-19T01:14:42.764Z,7.20
2023-04-19T01:15:45.066Z,8.23
2023-04-19T01:16:48.047Z,7.13
2023-04-19T01:17:50.240Z,9.90
2023-04-19T01:18:52.729Z,6.28
2023-04-19T01:20:07.045Z,9.07
2023-04-19T01:21:09.410Z,6.90
2023-04-19T01:22:19.688Z,8.57
2023-04-19T01:23:21.811Z,8.68
2023-04-19T01:24:23.891Z,6.65
2023-04-19T01:25:26.483Z,6.50
2023-04-19T01:26:28.740Z,11.93
2023-04-19T01:27:31.144Z,7.93
2023-04-19T01:28:33.538Z,6.63
2023-04-19T01:29:35.775Z,7.40
2023-04-19T01:30:38.118Z,8.40
2023-04-19T01:31:40.273Z,8.55
2023-04-19T01:32:42.422Z,7.28
2023-04-19T01:33:44.659Z,7.93
2023-04-19T01:34:47.892Z,7.75
2023-04-19T01:35:50.493Z,7.32
2023-04-19T01:36:52.623Z,8.05
2023-04-19T01:37:56.379Z,7.72
2023-04-19T01:38:58.639Z,6.35
2023-04-19T01:40:00.721Z,8.55
2023-04-19T01:41:02.799Z,7.95
2023-04-19T01:42:04.956Z,6.85
2023-04-19T01:43:07.810Z,7.25
2023-04-19T01:44:09.891Z,6.00
2023-04-19T01:45:11.999Z,8.35
2023-04-19T01:46:14.121Z,6.53
2023-04-19T01:47:16.339Z,6.90
2023-04-19T01:48:18.451Z,7.25
2023-04-19T01:49:20.619Z,9.43
2023-04-19T01:50:22.698Z,7.57
2023-04-19T01:51:24.780Z,5.55
2023-04-19T01:52:26.865Z,7.40
2023-04-19T01:53:29.000Z,5.90
2023-04-19T01:54:31.631Z,9.15
2023-04-19T01:55:33.738Z,6.00
2023-04-19T01:56:36.295Z,8.27
2023-04-19T01:57:38.378Z,8.20
2023-04-19T01:58:40.525Z,6.47
2023-04-19T01:59:42.600Z,8.30
2023-04-19T02:00:44.705Z,8.05
2023-04-19T02:01:46.860Z,7.90
2023-04-19T02:02:49.829Z,6.43
2023-04-19T02:03:52.276Z,6.47
2023-04-19T02:04:54.441Z,6.47
2023-04-19T02:05:56.577Z,7.95
2023-04-19T02:06:58.654Z,8.38
2023-04-19T02:08:01.527Z,7.05
2023-04-19T02:09:03.738Z,7.28
2023-04-19T02:10:06.545Z,6.72
2023-04-19T02:11:14.589Z,8.18
2023-04-19T02:12:16.706Z,7.78
2023-04-19T02:13:18.785Z,7.07
2023-04-19T02:14:20.914Z,7.13
2023-04-19T02:15:23.136Z,9.35
2023-04-19T02:16:25.447Z,7.85
2023-04-19T02:17:28.008Z,5.47
2023-04-19T02:18:30.219Z,7.97
2023-04-19T02:19:32.276Z,5.55
2023-04-19T02:20:34.371Z,7.45
2023-04-19T02:21:36.509Z,6.25
2023-04-19T02:22:38.695Z,8.50
2023-04-19T02:23:40.776Z,5.80
2023-04-19T02:24:42.898Z,6.35
2023-04-19T02:25:44.941Z,6.35
2023-04-19T02:26:47.103Z,5.82
2023-04-19T02:27:49.261Z,7.38
2023-04-19T02:28:52.618Z,7.93
2023-04-19T02:29:54.856Z,6.38
2023-04-19T02:30:56.976Z,9.00
2023-04-19T02:31:59.447Z,8.23
2023-04-19T02:33:01.861Z,8.52
2023-04-19T02:34:03.957Z,7.43
2023-04-19T02:35:06.494Z,6.88
2023-04-19T02:36:09.019Z,6.40
2023-04-19T02:37:11.084Z,6.80
2023-04-19T02:38:13.188Z,6.60
2023-04-19T02:39:15.267Z,5.45
2023-04-19T02:40:17.424Z,6.55
2023-04-19T02:41:19.506Z,6.22
2023-04-19T02:42:21.610Z,9.63
2023-04-19T02:43:23.737Z,8.18
2023-04-19T02:44:25.811Z,6.70
2023-04-19T02:45:27.886Z,6.15
2023-04-19T02:46:30.140Z,7.93
2023-04-19T02:47:32.399Z,7.07
2023-04-19T02:48:34.499Z,16.70
2023-04-19T02:49:38.017Z,9.43
2023-04-19T02:50:40.347Z,8.38
2023-04-19T02:51:42.427Z,8.50
2023-04-19T02:52:44.522Z,7.35
2023-04-19T02:53:46.622Z,7.10
2023-04-19T02:54:48.684Z,8.23
2023-04-19T02:55:50.901Z,10.48
2023-04-19T02:56:53.008Z,6.85
2023-04-19T02:57:55.103Z,8.93
2023-04-19T02:59:01.050Z,9.60
2023-04-19T03:00:05.517Z,8.38
2023-04-19T03:01:07.712Z,12.65
2023-04-19T03:02:10.001Z,10.32
2023-04-19T03:03:12.175Z,8.40
2023-04-19T03:04:14.516Z,7.85
2023-04-19T03:05:16.898Z,8.57
2023-04-19T03:06:19.150Z,10.73
2023-04-19T03:07:21.410Z,8.07
2023-04-19T03:08:23.499Z,7.07
2023-04-19T03:09:25.622Z,11.63
2023-04-19T03:10:27.706Z,9.80
2023-04-19T03:11:29.808Z,7.70
2023-04-19T03:12:31.907Z,8.07
2023-04-19T03:13:33.999Z,8.23
2023-04-19T03:14:36.418Z,8.10
2023-04-19T03:15:38.601Z,7.22
2023-04-19T03:16:40.934Z,10.05
2023-04-19T03:17:43.104Z,9.15
2023-04-19T03:18:47.241Z,11.93
2023-04-19T03:19:51.150Z,8.38
2023-04-19T03:20:53.283Z,11.82
2023-04-19T03:21:55.703Z,9.93
2023-04-19T03:22:57.812Z,9.48
2023-04-19T03:23:59.908Z,9.85
2023-04-19T03:25:01.990Z,10.73
2023-04-19T03:26:04.838Z,8.43
2023-04-19T03:27:07.020Z,10.63
2023-04-19T03:28:09.099Z,8.50
2023-04-19T03:29:11.234Z,8.82
2023-04-19T03:30:13.612Z,9.80
2023-04-19T03:31:15.787Z,11.23
2023-04-19T03:32:17.952Z,11.02
2023-04-19T03:33:20.121Z,9.88
2023-04-19T03:34:22.367Z,11.20
2023-04-19T03:35:26.354Z,9.55
2023-04-19T03:36:28.875Z,10.02
2023-04-19T03:37:30.964Z,9.77
2023-04-19T03:38:33.171Z,10.80
2023-04-19T03:39:35.357Z,9.77
2023-04-19T03:40:38.167Z,10.55
2023-04-19T03:41:40.586Z,10.70
2023-04-19T03:42:42.649Z,9.73
2023-04-19T03:43:44.813Z,12.68
2023-04-19T03:44:46.934Z,11.10
2023-04-19T03:45:49.034Z,10.57
2023-04-19T03:46:51.198Z,10.27
2023-04-19T03:47:53.364Z,12.90
2023-04-19T03:48:55.618Z,10.02
2023-04-19T03:49:57.785Z,12.65
2023-04-19T03:50:59.908Z,10.77
2023-04-19T03:52:01.993Z,8.52
2023-04-19T03:53:05.753Z,9.75
2023-04-19T03:54:07.942Z,10.25
2023-04-19T03:55:10.871Z,10.15
2023-04-19T03:56:13.005Z,10.00
2023-04-19T03:57:17.752Z,12.48
2023-04-19T03:59:22.037Z,10.10
2023-04-19T04:00:24.243Z,16.35
2023-04-19T04:01:26.817Z,10.13
2023-04-19T04:02:29.053Z,10.68
2023-04-19T04:03:31.554Z,10.75
2023-04-19T04:04:33.933Z,10.80
2023-04-19T04:05:36.900Z,15.85
2023-04-19T04:06:39.075Z,8.95
2023-04-19T04:07:41.175Z,14.02
2023-04-19T04:08:43.269Z,10.38
2023-04-19T04:09:47.383Z,9.70
2023-04-19T04:10:49.543Z,13.02
2023-04-19T04:11:51.678Z,12.88
2023-04-19T04:12:53.807Z,11.40
2023-04-19T04:13:56.401Z,9.90
2023-04-19T04:14:58.481Z,13.38
2023-04-19T04:16:00.765Z,11.27
2023-04-19T04:17:02.959Z,17.30
2023-04-19T04:18:07.107Z,10.52
2023-04-19T04:19:11.083Z,10.65
2023-04-19T04:20:13.909Z,8.95
2023-04-19T04:21:16.025Z,11.38
2023-04-19T04:22:18.174Z,11.23
2023-04-19T04:23:21.822Z,9.65
2023-04-19T04:24:23.964Z,13.82
2023-04-19T04:25:26.108Z,12.70
2023-04-19T04:26:30.801Z,15.00
2023-04-19T04:28:35.668Z,9.27
2023-04-19T04:29:38.242Z,12.25
2023-04-19T04:30:41.866Z,10.88
2023-04-19T04:31:44.297Z,12.23
2023-04-19T04:32:47.603Z,11.43
2023-04-19T04:33:49.753Z,12.10
2023-04-19T04:34:51.906Z,11.20
2023-04-19T04:35:57.868Z,10.88
2023-04-19T04:36:59.953Z,15.57
2023-04-19T04:38:11.173Z,12.35
2023-04-19T04:39:19.996Z,11.57
2023-04-19T04:40:22.622Z,12.18
2023-04-19T04:41:25.347Z,10.38
2023-04-19T04:42:27.865Z,11.05
2023-04-19T04:43:30.125Z,11.80
2023-04-19T04:44:34.170Z,15.68
2023-04-19T04:45:37.813Z,10.75
2023-04-19T04:46:39.964Z,14.25
2023-04-19T04:47:42.079Z,16.65
2023-04-19T04:48:44.284Z,12.23
2023-04-19T04:49:46.544Z,12.02
2023-04-19T04:50:48.677Z,14.70
2023-04-19T04:51:51.491Z,12.77
2023-04-19T04:52:53.843Z,11.23
2023-04-19T04:53:56.842Z,13.70
2023-04-19T04:54:59.030Z,11.77
2023-04-19T04:56:01.141Z,12.43
2023-04-19T04:57:04.083Z,13.13
2023-04-19T04:58:06.684Z,9.35
2023-04-19T04:59:08.897Z,10.95
2023-04-19T05:00:12.619Z,15.77
2023-04-19T05:01:14.828Z,10.77
2023-04-19T05:02:17.193Z,11.25
2023-04-19T05:03:20.246Z,9.55
2023-04-19T05:04:22.405Z,9.60
2023-04-19T05:05:24.735Z,12.32
2023-04-19T05:06:27.265Z,10.27
2023-04-19T05:07:29.410Z,10.00
2023-04-19T05:08:31.645Z,8.40
2023-04-19T05:09:33.951Z,13.73
2023-04-19T05:10:36.020Z,10.50
2023-04-19T05:11:38.538Z,9.45
2023-04-19T05:12:41.857Z,10.05
2023-04-19T05:13:44.077Z,10.48
2023-04-19T05:14:46.179Z,13.35
2023-04-19T05:15:48.354Z,11.35
2023-04-19T05:16:50.648Z,10.95
2023-04-19T05:17:52.812Z,10.77
2023-04-19T05:18:55.088Z,11.60
2023-04-19T05:19:57.171Z,10.82
2023-04-19T05:20:59.256Z,10.93
2023-04-19T05:22:01.480Z,11.13
2023-04-19T05:23:03.754Z,9.70
2023-04-19T05:24:05.986Z,9.30
2023-04-19T05:25:09.919Z,10.10
2023-04-19T05:26:15.577Z,9.90
2023-04-19T05:27:17.755Z,13.40
2023-04-19T05:28:20.420Z,10.48
2023-04-19T05:29:22.510Z,12.45
2023-04-19T05:30:24.693Z,9.85
2023-04-19T05:31:26.939Z,12.02
2023-04-19T05:32:29.923Z,9.75
2023-04-19T05:33:32.872Z,10.30
2023-04-19T05:34:36.405Z,8.57
2023-04-19T05:35:38.600Z,10.80
2023-04-19T05:36:40.671Z,9.18
2023-04-19T05:37:42.869Z,10.88
2023-04-19T05:38:44.974Z,10.02
2023-04-19T05:39:47.090Z,10.00
2023-04-19T05:40:49.230Z,12.23
2023-04-19T05:41:51.373Z,10.70
2023-04-19T05:42:53.482Z,9.88
2023-04-19T05:43:55.645Z,11.20
2023-04-19T05:44:57.778Z,9.50
2023-04-19T05:45:59.941Z,9.55
2023-04-19T05:47:02.033Z,12.82
2023-04-19T05:48:04.447Z,12.02
2023-04-19T05:49:06.583Z,12.90
2023-04-19T05:50:08.886Z,15.45
2023-04-19T05:51:10.965Z,13.15
2023-04-19T05:52:13.117Z,10.13
2023-04-19T05:53:15.587Z,9.68
2023-04-19T05:54:17.901Z,10.50
2023-04-19T05:55:20.247Z,12.93
2023-04-19T05:56:22.406Z,13.52
2023-04-19T05:57:24.644Z,13.45
2023-04-19T05:58:27.114Z,12.80
2023-04-19T05:59:29.482Z,9.55
2023-04-19T06:00:32.626Z,11.95
2023-04-19T06:01:35.549Z,11.73
2023-04-19T06:02:38.017Z,12.43
2023-04-19T06:03:40.484Z,12.07
2023-04-19T06:04:43.188Z,10.52
2023-04-19T06:05:45.814Z,16.05
2023-04-19T06:06:47.985Z,12.10
2023-04-19T06:08:01.639Z,11.68
2023-04-19T06:09:04.496Z,9.18
2023-04-19T06:10:07.421Z,9.88
2023-04-19T06:11:20.174Z,12.07
2023-04-19T06:13:29.059Z,9.30
2023-04-19T06:14:31.373Z,9.15
2023-04-19T06:15:33.517Z,11.38
2023-04-19T06:16:35.681Z,10.55
2023-04-19T06:17:37.775Z,9.75
2023-04-19T06:18:39.924Z,9.55
2023-04-19T06:19:42.495Z,8.60
2023-04-19T06:20:44.656Z,11.52
2023-04-19T06:21:47.748Z,12.52
2023-04-19T06:22:49.848Z,11.18
2023-04-19T06:23:52.039Z,11.40
2023-04-19T06:24:54.093Z,10.90
2023-04-19T06:25:56.164Z,12.00
2023-04-19T06:26:58.274Z,8.98
2023-04-19T06:28:00.459Z,14.43
2023-04-19T06:29:02.538Z,11.43
2023-04-19T06:30:05.336Z,9.77
2023-04-19T06:31:07.497Z,9.00
2023-04-19T06:32:09.821Z,15.35
2023-04-19T06:33:12.210Z,15.32
2023-04-19T06:34:14.472Z,10.00
2023-04-19T06:35:16.700Z,9.30
2023-04-19T06:36:18.856Z,11.10
2023-04-19T06:37:20.929Z,10.45
2023-04-19T06:38:23.102Z,15.20
2023-04-19T06:39:25.311Z,14.73
2023-04-19T06:40:28.990Z,11.75
2023-04-19T06:41:31.359Z,12.38
2023-04-19T06:42:33.515Z,12.05
2023-04-19T06:43:35.671Z,12.20
2023-04-19T06:44:37.916Z,8.68
2023-04-19T06:45:40.056Z,11.45
2023-04-19T06:46:42.425Z,10.98
2023-04-19T06:47:44.616Z,14.95
2023-04-19T06:48:46.814Z,9.18
2023-04-19T06:49:48.963Z,10.77
2023-04-19T06:50:51.165Z,13.38
2023-04-19T06:51:53.440Z,10.38
2023-04-19T06:52:55.835Z,8.95
2023-04-19T06:53:57.998Z,11.60
2023-04-19T06:55:00.290Z,12.38
2023-04-19T06:56:04.500Z,11.00
2023-04-19T06:57:06.700Z,9.00
2023-04-19T06:58:10.781Z,11.23
2023-04-19T06:59:14.482Z,7.95
2023-04-19T07:00:16.915Z,9.50
2023-04-19T07:01:19.309Z,9.43
2023-04-19T07:02:22.049Z,9.73
2023-04-19T07:03:24.613Z,11.75
2023-04-19T07:04:27.055Z,11.15
2023-04-19T07:05:30.723Z,15.60
2023-04-19T07:06:33.194Z,12.50
2023-04-19T07:07:38.213Z,8.40
2023-04-19T07:08:49.282Z,13.57
2023-04-19T07:09:52.161Z,12.35
2023-04-19T07:10:57.348Z,11.32
2023-04-19T07:11:59.573Z,9.43
2023-04-19T07:13:01.700Z,7.47
2023-04-19T07:14:03.980Z,10.32
2023-04-19T07:15:06.487Z,9.95
2023-04-19T07:16:08.652Z,11.93
2023-04-19T07:17:10.933Z,8.38
2023-04-19T07:18:15.035Z,8.73
2023-04-19T07:19:19.279Z,7.60
2023-04-19T07:20:21.727Z,11.82
2023-04-19T07:21:26.697Z,9.02
2023-04-19T07:22:28.814Z,9.85
2023-04-19T07:23:30.946Z,7.70
2023-04-19T07:24:33.110Z,8.38
2023-04-19T07:25:35.227Z,9.02
2023-04-19T07:26:37.529Z,6.85
2023-04-19T07:27:39.753Z,5.78
2023-04-19T07:28:41.912Z,8.60
2023-04-19T07:29:44.070Z,10.77
2023-04-19T07:30:46.390Z,6.47
2023-04-19T07:31:48.566Z,8.68
2023-04-19T07:32:52.065Z,10.18
2023-04-19T07:33:54.673Z,6.10
2023-04-19T07:34:56.881Z,8.80
2023-04-19T07:35:59.055Z,4.78
2023-04-19T07:37:01.181Z,5.25
2023-04-19T07:38:03.374Z,10.60
2023-04-19T07:39:05.505Z,6.25
2023-04-19T07:40:08.270Z,7.13
2023-04-19T07:41:10.562Z,6.60
2023-04-19T07:42:12.677Z,7.10
2023-04-19T07:43:14.811Z,6.38
2023-04-19T07:44:17.165Z,6.47
2023-04-19T07:45:19.409Z,7.78
2023-04-19T07:46:21.661Z,8.65
2023-04-19T07:47:23.944Z,5.97
2023-04-19T07:48:26.187Z,6.07
2023-04-19T07:49:29.392Z,5.00
2023-04-19T07:50:31.558Z,9.55
2023-04-19T07:51:33.807Z,8.88
2023-04-19T07:52:36.052Z,6.72
2023-04-19T07:53:40.094Z,6.43
2023-04-19T07:54:42.216Z,6.75
2023-04-19T07:55:44.962Z,8.25
2023-04-19T07:56:47.071Z,6.75
2023-04-19T07:57:49.751Z,8.15
2023-04-19T07:59:04.231Z,5.93
2023-04-19T08:00:10.819Z,5.82
2023-04-19T08:01:13.038Z,5.05
2023-04-19T08:02:16.640Z,9.27
2023-04-19T08:03:19.215Z,7.25
2023-04-19T08:04:23.371Z,5.82
2023-04-19T08:06:30.503Z,9.45
2023-04-19T08:07:32.700Z,9.32
2023-04-19T08:08:35.835Z,4.72
2023-04-19T08:09:38.014Z,6.18
2023-04-19T08:10:41.190Z,7.43
2023-04-19T08:11:43.443Z,7.63
2023-04-19T08:12:57.363Z,5.30
2023-04-19T08:14:26.132Z,8.35
2023-04-19T08:16:15.186Z,6.88
2023-04-19T08:17:56.207Z,5.38
2023-04-19T08:18:58.667Z,7.32
2023-04-19T08:20:01.207Z,4.80
2023-04-19T08:21:03.537Z,5.75
2023-04-19T08:22:05.871Z,6.10
2023-04-19T08:23:20.538Z,5.60
2023-04-19T08:24:24.822Z,6.90
2023-04-19T08:25:28.594Z,5.30
2023-04-19T08:26:30.752Z,5.30
2023-04-19T08:27:32.971Z,5.47
2023-04-19T08:28:35.436Z,5.00
2023-04-19T08:29:38.979Z,5.93
2023-04-19T08:30:41.214Z,4.45
2023-04-19T08:31:44.288Z,5.15
2023-04-19T08:32:46.541Z,6.18
2023-04-19T08:33:48.754Z,6.72
2023-04-19T08:34:50.916Z,5.43
2023-04-19T08:35:53.007Z,5.60
2023-04-19T08:37:03.379Z,5.18
2023-04-19T08:38:07.341Z,4.78
2023-04-19T08:39:17.653Z,9.68
2023-04-19T08:40:23.305Z,4.13
2023-04-19T08:41:26.888Z,5.13
2023-04-19T08:42:36.289Z,5.65
2023-04-19T08:43:40.469Z,5.47
2023-04-19T08:44:59.682Z,4.68
2023-04-19T08:46:07.983Z,7.15
2023-04-19T08:47:15.246Z,7.68
2023-04-19T08:48:23.860Z,5.53
2023-04-19T08:49:26.198Z,5.05
2023-04-19T08:50:34.649Z,10.02
2023-04-19T08:51:40.886Z,4.28
2023-04-19T08:52:54.246Z,5.18
2023-04-19T08:53:59.397Z,6.03
2023-04-19T08:55:06.424Z,6.57
2023-04-19T08:56:15.277Z,5.97
2023-04-19T08:57:26.535Z,5.93
2023-04-19T08:58:45.919Z,5.78
2023-04-19T08:59:55.744Z,6.75
2023-04-19T09:00:58.509Z,5.82
2023-04-19T09:02:01.489Z,7.00
2023-04-19T09:03:04.012Z,7.50
2023-04-19T09:04:27.152Z,8.02
2023-04-19T09:05:30.023Z,6.97
2023-04-19T09:06:39.033Z,6.15
2023-04-19T09:07:42.387Z,5.97
2023-04-19T09:08:44.574Z,4.53
2023-04-19T09:10:05.505Z,5.40
2023-04-19T09:11:08.414Z,7.72
2023-04-19T09:12:19.326Z,4.75
2023-04-19T09:14:23.690Z,8.13
2023-04-19T09:15:39.078Z,5.63
2023-04-19T09:16:41.743Z,7.50
2023-04-19T09:17:44.648Z,5.72
2023-04-19T09:19:08.140Z,6.68
2023-04-19T09:20:17.571Z,9.75
2023-04-19T09:21:28.649Z,10.25
2023-04-19T09:22:31.528Z,8.13
2023-04-19T09:23:33.561Z,10.27
2023-04-19T09:25:14.436Z,5.28
2023-04-19T09:27:07.313Z,8.25
2023-04-19T09:28:14.024Z,7.85
2023-04-19T09:29:17.463Z,6.78
2023-04-19T09:30:30.568Z,8.55
2023-04-19T09:32:48.160Z,16.58
2023-04-19T09:33:50.745Z,6.57
2023-04-19T09:34:57.999Z,10.52
2023-04-19T09:36:01.062Z,8.13
2023-04-19T09:37:21.473Z,7.35
2023-04-19T09:38:50.516Z,7.63
2023-04-19T09:39:53.101Z,7.78
2023-04-19T09:41:08.671Z,6.70
2023-04-19T09:42:10.827Z,8.82
2023-04-19T09:43:45.008Z,6.97
2023-04-19T09:45:12.498Z,6.00
2023-04-19T09:45:57.463Z,6.82
2023-04-19T09:46:59.596Z,6.13
2023-04-19T09:48:07.781Z,6.45
2023-04-19T09:49:45.529Z,6.53
2023-04-19T09:50:57.470Z,7.40
2023-04-19T09:52:03.583Z,6.93
2023-04-19T09:53:06.678Z,5.43
2023-04-19T09:54:10.435Z,5.35
2023-04-19T09:55:24.583Z,6.57
2023-04-19T09:56:28.595Z,7.57
2023-04-19T09:57:31.918Z,6.15
2023-04-19T09:58:49.062Z,5.47
2023-04-19T09:59:53.051Z,7.40
2023-04-19T10:01:10.680Z,8.00
2023-04-19T10:02:17.794Z,7.60
2023-04-19T10:03:22.087Z,8.45
2023-04-19T10:04:33.476Z,5.75
2023-04-19T10:05:48.573Z,9.30
2023-04-19T10:07:24.485Z,8.55
2023-04-19T10:08:15.063Z,7.40
2023-04-19T10:09:21.760Z,15.07
2023-04-19T10:10:32.927Z,8.38
2023-04-19T10:11:46.940Z,7.53
2023-04-19T10:14:00.504Z,6.55
2023-04-19T10:16:18.344Z,11.13
2023-04-19T10:17:22.438Z,7.68
2023-04-19T10:18:24.941Z,7.25
2023-04-19T10:19:27.770Z,8.40
2023-04-19T10:20:47.241Z,6.43
2023-04-19T10:21:50.241Z,7.90
2023-04-19T10:22:52.798Z,8.73
2023-04-19T10:23:56.032Z,6.85
2023-04-19T10:25:13.186Z,8.25
2023-04-19T10:26:15.407Z,11.15
2023-04-19T10:27:24.626Z,7.53
2023-04-19T10:28:30.911Z,7.93
2023-04-19T10:29:51.877Z,9.40
2023-04-19T10:30:55.652Z,17.58
2023-04-19T10:31:57.776Z,9.40
2023-04-19T10:33:02.957Z,11.40
2023-04-19T10:34:09.467Z,9.30
2023-04-19T10:35:20.569Z,9.80
2023-04-19T10:36:22.722Z,10.48
2023-04-19T10:37:27.695Z,11.52
2023-04-19T10:38:48.981Z,8.38
2023-04-19T10:39:51.480Z,12.00
2023-04-19T10:41:01.055Z,12.00
2023-04-19T10:42:03.324Z,8.38
2023-04-19T10:43:11.221Z,11.82
2023-04-19T10:44:13.355Z,10.15
2023-04-19T10:45:35.091Z,14.10
2023-04-19T10:46:40.274Z,11.27
2023-04-19T10:47:45.016Z,18.92
2023-04-19T10:48:53.784Z,17.13
2023-04-19T10:49:55.936Z,18.35
2023-04-19T10:51:19.298Z,10.23
2023-04-19T10:52:29.586Z,12.30
2023-04-19T10:53:43.594Z,10.68
2023-04-19T10:54:56.059Z,11.02
2023-04-19T10:55:58.187Z,11.63
2023-04-19T10:57:02.919Z,11.88
2023-04-19T10:58:06.418Z,9.73
2023-04-19T10:59:10.385Z,10.43
2023-04-19T11:00:22.696Z,10.93
2023-04-19T11:01:43.256Z,10.95
2023-04-19T11:02:45.925Z,13.45
2023-04-19T11:03:48.257Z,11.48
2023-04-19T11:04:50.560Z,12.07
2023-04-19T11:06:23.099Z,9.57
2023-04-19T11:07:25.486Z,9.48
2023-04-19T11:08:27.676Z,9.57
2023-04-19T11:09:38.942Z,9.50
2023-04-19T11:10:41.684Z,11.55
2023-04-19T11:11:43.986Z,8.70
2023-04-19T11:12:46.172Z,12.63
2023-04-19T11:13:48.799Z,9.82
2023-04-19T11:14:57.940Z,9.45
2023-04-19T11:16:00.191Z,11.95
2023-04-19T11:17:16.665Z,12.10
2023-04-19T11:18:19.585Z,10.70
2023-04-19T11:19:21.784Z,8.55
2023-04-19T11:20:24.680Z,9.57
2023-04-19T11:21:30.283Z,9.48
2023-04-19T11:22:39.890Z,10.05
2023-04-19T11:23:42.072Z,9.45
2023-04-19T11:24:49.829Z,8.55
2023-04-19T11:25:53.010Z,9.23
2023-04-19T11:26:56.981Z,11.57
2023-04-19T11:28:00.471Z,9.88
2023-04-19T11:29:03.061Z,9.70
2023-04-19T11:30:09.621Z,9.63
2023-04-19T11:31:11.815Z,10.90
2023-04-19T11:32:14.036Z,7.63
2023-04-19T11:33:24.646Z,10.73
2023-04-19T11:34:26.829Z,9.50
2023-04-19T11:35:30.631Z,10.77
2023-04-19T11:36:33.907Z,11.77
2023-04-19T11:37:36.916Z,11.23
2023-04-19T11:38:39.076Z,10.27
2023-04-19T11:39:47.597Z,9.55
2023-04-19T11:41:01.781Z,8.95
2023-04-19T11:42:03.954Z,8.73
2023-04-19T11:43:06.259Z,8.93
2023-04-19T11:44:15.928Z,9.82
2023-04-19T11:45:32.251Z,11.38
2023-04-19T11:46:37.013Z,12.48
2023-04-19T11:47:49.118Z,14.95
2023-04-19T11:48:54.769Z,10.40
2023-04-19T11:49:56.994Z,10.77
2023-04-19T11:51:00.165Z,13.55
2023-04-19T11:52:06.376Z,13.77
2023-04-19T11:53:12.207Z,10.52
2023-04-19T11:54:18.270Z,12.38
2023-04-19T11:55:21.035Z,10.38
2023-04-19T11:56:23.884Z,12.52
2023-04-19T11:57:30.652Z,11.32
2023-04-19T11:58:36.204Z,10.05
2023-04-19T11:59:39.378Z,10.85
2023-04-19T12:00:46.794Z,10.60
2023-04-19T12:01:48.905Z,9.82
2023-04-19T12:02:52.213Z,9.45
2023-04-19T12:03:56.552Z,11.13
2023-04-19T12:06:15.280Z,9.98
2023-04-19T12:07:17.383Z,10.13
2023-04-19T12:08:31.190Z,12.18
2023-04-19T12:09:35.473Z,13.85
2023-04-19T12:10:37.652Z,10.90
2023-04-19T12:11:44.747Z,12.05
2023-04-19T12:12:46.893Z,10.82
2023-04-19T12:13:49.642Z,11.95
2023-04-19T12:14:52.752Z,11.18
2023-04-19T12:15:54.900Z,15.35
2023-04-19T12:17:13.645Z,9.85
2023-04-19T12:18:15.888Z,12.63
2023-04-19T12:19:20.442Z,11.07
2023-04-19T12:20:29.851Z,13.32
2023-04-19T12:21:33.082Z,13.20
2023-04-19T12:22:35.264Z,12.75
2023-04-19T12:23:37.316Z,10.50
2023-04-19T12:24:40.271Z,12.95
2023-04-19T12:25:44.047Z,11.18
2023-04-19T12:26:57.045Z,12.00
2023-04-19T12:28:00.665Z,12.18
2023-04-19T12:29:03.556Z,14.48
2023-04-19T12:30:07.058Z,17.75
2023-04-19T12:31:09.384Z,13.00
2023-04-19T12:32:12.018Z,13.43
2023-04-19T12:33:14.431Z,12.32
2023-04-19T12:34:16.620Z,11.95
2023-04-19T12:35:18.885Z,13.38
2023-04-19T12:36:21.288Z,13.40
2023-04-19T12:37:23.467Z,13.52
2023-04-19T12:38:25.837Z,12.77
2023-04-19T12:39:28.888Z,14.13
2023-04-19T12:40:31.462Z,11.68
2023-04-19T12:41:33.598Z,11.73
2023-04-19T12:42:36.002Z,14.90
2023-04-19T12:43:38.203Z,12.25
2023-04-19T12:44:40.997Z,12.20
2023-04-19T12:45:43.236Z,12.60
2023-04-19T12:46:45.352Z,12.32
2023-04-19T12:47:48.497Z,11.27
2023-04-19T12:48:51.042Z,12.02
2023-04-19T12:49:53.161Z,11.43
2023-04-19T12:50:55.282Z,14.15
2023-04-19T12:51:57.736Z,10.98
2023-04-19T12:52:59.834Z,12.85
2023-04-19T12:54:02.600Z,11.02
2023-04-19T12:55:05.556Z,12.27
2023-04-19T12:56:07.788Z,13.65
2023-04-19T12:57:09.876Z,11.98
2023-04-19T12:58:11.956Z,11.50
2023-04-19T12:59:14.519Z,12.23
2023-04-19T13:00:17.425Z,12.07
2023-04-19T13:01:19.554Z,11.07
2023-04-19T13:02:21.901Z,11.48
2023-04-19T13:03:24.348Z,12.27
2023-04-19T13:04:26.987Z,14.23
2023-04-19T13:05:29.409Z,17.30
2023-04-19T13:06:32.789Z,17.65
2023-04-19T13:07:34.914Z,12.45
2023-04-19T13:08:44.773Z,11.90
2023-04-19T13:09:49.345Z,13.40
2023-04-19T13:10:51.446Z,11.85
2023-04-19T13:11:54.986Z,14.00
2023-04-19T13:12:59.049Z,13.57
2023-04-19T13:14:01.292Z,12.23
2023-04-19T13:15:04.698Z,13.63
2023-04-19T13:16:07.996Z,14.38
2023-04-19T13:17:10.284Z,12.85
2023-04-19T13:18:12.615Z,11.52
2023-04-19T13:19:14.726Z,10.57
2023-04-19T13:20:19.232Z,10.27
2023-04-19T13:22:23.263Z,12.13
2023-04-19T13:23:44.779Z,10.00
2023-04-19T13:24:46.919Z,12.68
2023-04-19T13:25:48.985Z,13.02
2023-04-19T13:26:51.124Z,11.07
2023-04-19T13:27:53.330Z,10.05
2023-04-19T13:28:56.380Z,10.48
2023-04-19T13:29:58.548Z,10.95
2023-04-19T13:31:00.673Z,10.63
2023-04-19T13:32:02.910Z,10.35
2023-04-19T13:33:07.386Z,10.00
2023-04-19T13:34:10.881Z,10.98
2023-04-19T13:35:12.973Z,9.45
2023-04-19T13:36:15.115Z,9.90
2023-04-19T13:37:17.242Z,10.13
2023-04-19T13:38:19.433Z,10.48
2023-04-19T13:39:21.741Z,8.98
2023-04-19T13:40:23.840Z,9.60
2023-04-19T13:41:26.000Z,10.35
2023-04-19T13:42:29.037Z,11.45
2023-04-19T13:43:31.186Z,14.20
2023-04-19T13:44:33.355Z,9.60
2023-04-19T13:45:35.537Z,10.82
2023-04-19T13:46:37.741Z,9.75
2023-04-19T13:47:39.924Z,13.75
2023-04-19T13:48:42.145Z,9.63
2023-04-19T13:49:44.540Z,10.38
2023-04-19T13:50:46.670Z,11.25
2023-04-19T13:51:50.656Z,10.82
2023-04-19T13:52:53.004Z,10.38
2023-04-19T13:53:55.072Z,12.02
2023-04-19T13:54:57.198Z,11.05
2023-04-19T13:55:59.618Z,13.65
2023-04-19T13:57:02.915Z,15.35
2023-04-19T13:58:05.044Z,14.90
2023-04-19T13:59:07.164Z,19.70
2023-04-19T14:00:09.710Z,15.15
2023-04-19T14:01:11.882Z,15.73
2023-04-19T14:02:14.055Z,16.60
2023-04-19T14:03:16.909Z,15.32
2023-04-19T14:04:19.700Z,15.63
2023-04-19T14:05:22.285Z,16.65
2023-04-19T14:06:24.379Z,15.93
2023-04-19T14:07:26.497Z,14.38
2023-04-19T14:08:28.623Z,16.80
2023-04-19T14:09:30.736Z,18.83
2023-04-19T14:10:32.936Z,17.33
2023-04-19T14:11:35.308Z,17.67
2023-04-19T14:12:37.456Z,17.27